createdAt,value
2022-10-07T00:02:08.950Z,15.69
2022-10-07T00:06:01.156Z,15.70
2022-10-07T00:09:43.825Z,15.65
2022-10-07T00:13:26.496Z,15.59
2022-10-07T00:17:10.528Z,15.58
2022-10-07T00:20:53.172Z,15.55
2022-10-07T00:24:36.006Z,15.50
2022-10-07T00:28:18.665Z,15.46
2022-10-07T00:32:01.328Z,15.44
2022-10-07T00:35:45.615Z,15.42
2022-10-07T00:39:28.654Z,15.41
2022-10-07T00:43:22.244Z,15.36
2022-10-07T00:47:06.261Z,15.35
2022-10-07T00:50:52.363Z,15.34
2022-10-07T00:54:35.016Z,15.33
2022-10-07T00:58:19.340Z,15.32
2022-10-07T01:02:02.157Z,15.33
2022-10-07T01:05:44.872Z,15.34
2022-10-07T01:09:29.008Z,15.32
2022-10-07T01:13:15.339Z,15.32
2022-10-07T01:17:03.146Z,15.32
2022-10-07T01:20:51.368Z,15.31
2022-10-07T01:24:41.547Z,15.31
2022-10-07T01:28:29.487Z,15.31
2022-10-07T01:32:14.915Z,15.30
2022-10-07T01:36:02.413Z,15.29
2022-10-07T01:39:49.156Z,15.30
2022-10-07T01:43:37.081Z,15.27
2022-10-07T01:47:19.816Z,15.27
2022-10-07T01:51:02.508Z,15.24
2022-10-07T01:54:59.523Z,15.22
2022-10-07T01:58:56.223Z,15.20
2022-10-07T02:02:53.096Z,15.13
2022-10-07T02:06:42.504Z,15.04
2022-10-07T02:10:28.056Z,14.98
2022-10-07T02:14:13.501Z,14.98
2022-10-07T02:17:57.747Z,14.95
2022-10-07T02:21:41.658Z,14.87
2022-10-07T02:25:25.181Z,14.83
2022-10-07T02:29:09.290Z,14.84
2022-10-07T02:32:55.547Z,14.81
2022-10-07T02:36:40.841Z,14.80
2022-10-07T02:40:23.576Z,14.81
2022-10-07T02:44:14.549Z,14.79
2022-10-07T02:48:00.460Z,14.77
2022-10-07T02:51:48.236Z,14.77
2022-10-07T02:55:31.897Z,14.75
2022-10-07T02:59:15.660Z,14.75
2022-10-07T03:03:02.546Z,14.75
2022-10-07T03:06:45.774Z,14.73
2022-10-07T03:10:28.958Z,14.68
2022-10-07T03:14:11.736Z,14.65
2022-10-07T03:17:54.396Z,14.55
2022-10-07T03:21:40.560Z,14.48
2022-10-07T03:25:23.224Z,14.43
2022-10-07T03:29:06.466Z,14.38
2022-10-07T03:32:49.534Z,14.34
2022-10-07T03:36:32.207Z,14.25
2022-10-07T03:40:16.482Z,14.16
2022-10-07T03:43:59.363Z,14.01
2022-10-07T03:47:42.384Z,13.79
2022-10-07T03:51:25.442Z,13.63
2022-10-07T03:55:09.538Z,13.43
2022-10-07T03:58:53.681Z,13.28
2022-10-07T04:02:36.317Z,13.15
2022-10-07T04:06:19.398Z,13.05
2022-10-07T04:10:02.104Z,12.95
2022-10-07T04:13:45.123Z,12.85
2022-10-07T04:17:29.350Z,12.79
2022-10-07T04:21:12.736Z,12.72
2022-10-07T04:25:12.710Z,12.66
2022-10-07T04:28:55.341Z,12.62
2022-10-07T04:32:39.499Z,12.59
2022-10-07T04:36:22.220Z,12.57
2022-10-07T04:40:05.323Z,12.59
2022-10-07T04:43:56.830Z,12.57
2022-10-07T04:47:42.189Z,12.48
2022-10-07T04:51:25.588Z,12.37
2022-10-07T04:55:09.265Z,12.24
2022-10-07T04:58:51.932Z,12.08
2022-10-07T05:02:34.674Z,12.06
2022-10-07T05:06:18.850Z,11.97
2022-10-07T05:10:01.547Z,11.89
2022-10-07T05:13:44.374Z,11.84
2022-10-07T05:17:27.037Z,11.79
2022-10-07T05:21:10.281Z,11.79
2022-10-07T05:24:54.518Z,11.79
2022-10-07T05:28:39.182Z,11.83
2022-10-07T05:32:22.027Z,11.86
2022-10-07T05:36:05.520Z,11.82
2022-10-07T05:39:48.646Z,11.74
2022-10-07T05:43:34.584Z,11.61
2022-10-07T05:47:18.802Z,11.63
2022-10-07T05:51:01.746Z,11.57
2022-10-07T05:54:44.403Z,11.65
2022-10-07T05:58:27.896Z,11.71
2022-10-07T06:02:15.196Z,11.68
2022-10-07T06:05:59.489Z,11.48
2022-10-07T06:09:59.587Z,11.33
2022-10-07T06:13:42.283Z,11.21
2022-10-07T06:17:26.273Z,11.20
2022-10-07T06:21:11.215Z,11.31
2022-10-07T06:24:57.701Z,11.46
2022-10-07T06:28:42.208Z,11.60
2022-10-07T06:32:26.329Z,11.57
2022-10-07T06:36:12.051Z,11.40
2022-10-07T06:39:59.349Z,11.32
2022-10-07T06:43:42.392Z,11.28
2022-10-07T06:47:26.474Z,11.30
2022-10-07T06:51:10.371Z,11.51
2022-10-07T06:55:00.483Z,11.35
2022-10-07T06:58:43.643Z,11.41
2022-10-07T07:02:29.429Z,11.64
2022-10-07T07:06:12.172Z,11.84
2022-10-07T07:09:54.833Z,12.02
2022-10-07T07:13:38.849Z,12.13
2022-10-07T07:17:22.946Z,12.24
2022-10-07T07:21:07.751Z,12.38
2022-10-07T07:24:50.766Z,12.52
2022-10-07T07:28:33.535Z,12.58
2022-10-07T07:32:16.410Z,12.72
2022-10-07T07:36:00.055Z,12.77
2022-10-07T07:39:44.503Z,12.88
2022-10-07T07:43:27.214Z,12.98
2022-10-07T07:47:09.971Z,13.04
2022-10-07T07:50:53.268Z,13.15
2022-10-07T07:54:37.569Z,13.18
2022-10-07T07:58:22.181Z,13.31
2022-10-07T08:02:05.101Z,13.42
2022-10-07T08:05:48.839Z,13.56
2022-10-07T08:09:31.877Z,13.62
2022-10-07T08:13:14.553Z,13.60
2022-10-07T08:16:59.078Z,13.62
2022-10-07T08:20:41.789Z,13.72
2022-10-07T08:24:25.759Z,13.80
2022-10-07T08:28:08.487Z,13.79
2022-10-07T08:31:51.371Z,13.78
2022-10-07T08:35:35.506Z,13.83
2022-10-07T08:39:18.600Z,13.84
2022-10-07T08:43:01.272Z,13.97
2022-10-07T08:46:52.359Z,14.08
2022-10-07T08:50:44.094Z,14.14
2022-10-07T08:54:30.726Z,14.08
2022-10-07T08:58:35.399Z,14.21
2022-10-07T09:02:25.074Z,14.34
2022-10-07T09:06:14.221Z,14.37
2022-10-07T09:10:00.861Z,14.41
2022-10-07T09:13:46.619Z,14.39
2022-10-07T09:17:35.225Z,14.34
2022-10-07T09:21:23.481Z,14.34
2022-10-07T09:25:20.475Z,14.48
2022-10-07T09:29:03.221Z,14.55
2022-10-07T09:32:47.627Z,14.71
2022-10-07T09:36:31.694Z,14.81
2022-10-07T09:40:21.939Z,14.89
2022-10-07T09:44:06.405Z,14.91
2022-10-07T09:47:53.508Z,15.01
2022-10-07T09:51:38.344Z,15.02
2022-10-07T09:55:32.653Z,15.05
2022-10-07T09:59:20.800Z,15.16
2022-10-07T10:03:06.438Z,15.31
2022-10-07T10:06:52.318Z,15.48
2022-10-07T10:10:36.435Z,15.65
2022-10-07T10:14:32.860Z,15.85
2022-10-07T10:18:34.775Z,15.97
2022-10-07T10:22:26.989Z,16.05
2022-10-07T10:26:32.454Z,16.10
2022-10-07T10:30:20.901Z,16.13
2022-10-07T10:34:09.558Z,16.21
2022-10-07T10:38:04.943Z,16.33
2022-10-07T10:41:51.312Z,16.40
2022-10-07T10:45:36.915Z,16.40
2022-10-07T10:49:26.207Z,16.32
2022-10-07T10:53:22.979Z,16.36
2022-10-07T10:57:12.160Z,16.52
2022-10-07T11:01:01.084Z,16.66
2022-10-07T11:04:46.605Z,16.75
2022-10-07T11:08:37.772Z,16.85
2022-10-07T11:12:26.749Z,16.99
2022-10-07T11:16:12.385Z,17.10
2022-10-07T11:20:04.219Z,17.15
2022-10-07T11:23:54.604Z,17.19
2022-10-07T11:27:37.351Z,17.18
2022-10-07T11:31:27.796Z,17.19
2022-10-07T11:35:23.316Z,17.37
2022-10-07T11:39:09.041Z,17.39
2022-10-07T11:42:52.299Z,17.56
2022-10-07T11:46:36.638Z,17.76
2022-10-07T11:50:21.968Z,17.73
2022-10-07T11:54:07.962Z,17.85
2022-10-07T11:57:54.554Z,17.92
2022-10-07T12:01:52.580Z,18.01
2022-10-07T12:06:10.153Z,18.27
2022-10-07T12:10:18.226Z,18.38
2022-10-07T12:14:24.737Z,18.59
2022-10-07T12:18:28.454Z,18.72
2022-10-07T12:22:20.395Z,18.86
2022-10-07T12:26:06.627Z,19.11
2022-10-07T12:29:58.868Z,19.41
2022-10-07T12:33:55.761Z,19.64
2022-10-07T12:37:50.333Z,19.82
2022-10-07T12:41:43.891Z,19.85
2022-10-07T12:45:28.214Z,19.82
2022-10-07T12:49:16.851Z,19.88
2022-10-07T12:53:02.620Z,19.98
2022-10-07T12:56:47.771Z,20.21
2022-10-07T13:00:31.803Z,20.37
2022-10-07T13:04:27.497Z,20.54
2022-10-07T13:08:46.043Z,20.69
2022-10-07T13:12:36.334Z,20.86
2022-10-07T13:16:22.806Z,21.00
2022-10-07T13:20:17.316Z,21.19
2022-10-07T13:24:00.136Z,21.22
2022-10-07T13:27:48.167Z,21.23
2022-10-07T13:31:33.335Z,21.27
2022-10-07T13:35:33.216Z,21.34
2022-10-07T13:39:22.154Z,21.26
2022-10-07T13:43:08.010Z,21.53
2022-10-07T13:46:55.515Z,21.71
2022-10-07T13:50:41.241Z,21.92
2022-10-07T13:54:25.758Z,22.31
2022-10-07T13:58:11.118Z,22.43
2022-10-07T14:01:56.464Z,22.39
2022-10-07T14:05:48.208Z,22.12
2022-10-07T14:09:45.018Z,21.80
2022-10-07T14:13:50.938Z,21.48
2022-10-07T14:17:40.539Z,21.28
2022-10-07T14:21:23.281Z,21.22
2022-10-07T14:25:08.113Z,21.24
2022-10-07T14:28:55.368Z,21.57
2022-10-07T14:32:55.761Z,21.86
2022-10-07T14:36:38.458Z,21.86
2022-10-07T14:40:23.410Z,21.71
2022-10-07T14:44:24.614Z,21.51
2022-10-07T14:48:13.038Z,21.36
2022-10-07T14:51:55.792Z,21.29
2022-10-07T14:55:38.500Z,21.33
2022-10-07T14:59:23.358Z,21.39
2022-10-07T15:03:06.062Z,21.39
2022-10-07T15:06:50.852Z,21.16
2022-10-07T15:10:33.909Z,20.90
2022-10-07T15:14:19.659Z,20.35
2022-10-07T15:18:03.707Z,19.83
2022-10-07T15:21:46.357Z,19.46
2022-10-07T15:25:31.768Z,19.23
2022-10-07T15:29:39.402Z,19.18
2022-10-07T15:33:23.516Z,19.14
2022-10-07T15:37:06.263Z,19.05
2022-10-07T15:40:53.415Z,19.11
2022-10-07T15:44:42.542Z,19.11
2022-10-07T15:48:28.642Z,18.94
2022-10-07T15:52:14.547Z,18.73
2022-10-07T15:55:58.819Z,18.59
2022-10-07T15:59:42.145Z,18.46
2022-10-07T16:03:26.446Z,18.28
2022-10-07T16:07:11.252Z,18.13
2022-10-07T16:10:53.978Z,18.00
2022-10-07T16:14:36.848Z,17.90
2022-10-07T16:18:19.492Z,17.82
2022-10-07T16:22:03.646Z,17.75
2022-10-07T16:25:46.307Z,17.69
2022-10-07T16:29:54.402Z,17.61
2022-10-07T16:33:37.200Z,17.47
2022-10-07T16:37:21.263Z,17.39
2022-10-07T16:41:03.973Z,17.31
2022-10-07T16:44:51.140Z,17.23
2022-10-07T16:48:38.980Z,17.16
2022-10-07T16:52:23.037Z,17.06
2022-10-07T16:56:06.082Z,16.97
2022-10-07T17:00:22.234Z,16.79
2022-10-07T17:04:05.002Z,16.55
2022-10-07T17:07:49.286Z,16.41
2022-10-07T17:11:33.768Z,16.34
2022-10-07T17:15:16.683Z,16.28
2022-10-07T17:18:59.699Z,16.09
2022-10-07T17:22:43.233Z,16.04
2022-10-07T17:26:28.108Z,16.01
2022-10-07T17:30:12.303Z,15.99
2022-10-07T17:33:55.158Z,15.96
2022-10-07T17:37:37.980Z,15.81
2022-10-07T17:41:22.681Z,15.63
2022-10-07T17:45:19.017Z,15.48
2022-10-07T17:49:03.372Z,15.41
2022-10-07T17:52:46.104Z,15.44
2022-10-07T17:56:29.865Z,15.42
2022-10-07T18:00:34.623Z,15.32
2022-10-07T18:04:23.749Z,15.03
2022-10-07T18:08:07.599Z,14.83
2022-10-07T18:12:07.636Z,14.69
2022-10-07T18:15:59.070Z,14.53
2022-10-07T18:19:41.862Z,14.49
2022-10-07T18:23:25.596Z,14.41
2022-10-07T18:27:08.284Z,14.36
2022-10-07T18:30:50.993Z,14.34
2022-10-07T18:34:35.117Z,14.32
2022-10-07T18:38:17.791Z,14.28
2022-10-07T18:42:00.446Z,14.25
2022-10-07T18:45:43.192Z,14.14
2022-10-07T18:49:26.342Z,14.05
2022-10-07T18:53:10.354Z,13.95
2022-10-07T18:56:53.059Z,13.83
2022-10-07T19:00:35.814Z,13.77
2022-10-07T19:04:18.825Z,13.70
2022-10-07T19:08:01.751Z,13.60
2022-10-07T19:11:45.988Z,13.55
2022-10-07T19:15:28.738Z,13.53
2022-10-07T19:19:13.888Z,13.43
2022-10-07T19:22:56.543Z,13.38
2022-10-07T19:26:42.301Z,13.29
2022-10-07T19:30:26.449Z,13.22
2022-10-07T19:34:10.772Z,13.18
2022-10-07T19:37:54.263Z,13.14
2022-10-07T19:41:37.732Z,13.14
2022-10-07T19:45:21.854Z,13.12
2022-10-07T19:49:07.124Z,13.03
2022-10-07T19:52:50.676Z,13.00
2022-10-07T19:56:35.580Z,12.94
2022-10-07T20:00:18.374Z,12.88
2022-10-07T20:04:02.718Z,12.87
2022-10-07T20:07:47.075Z,12.82
2022-10-07T20:11:29.981Z,12.76
2022-10-07T20:15:13.402Z,12.72
2022-10-07T20:19:00.553Z,12.72
2022-10-07T20:22:49.371Z,12.66
2022-10-07T20:26:35.887Z,12.67
2022-10-07T20:30:18.781Z,12.73
2022-10-07T20:34:02.577Z,12.72
2022-10-07T20:37:45.297Z,12.71
2022-10-07T20:41:46.639Z,12.73
2022-10-07T20:45:51.050Z,12.78
2022-10-07T20:49:41.993Z,12.83
2022-10-07T20:53:24.941Z,12.80
2022-10-07T20:57:07.667Z,12.80
2022-10-07T21:00:51.754Z,12.77
2022-10-07T21:04:35.169Z,12.72
2022-10-07T21:08:18.380Z,12.63
2022-10-07T21:12:01.273Z,12.57
2022-10-07T21:15:43.962Z,12.57
2022-10-07T21:19:28.179Z,13.39
2022-10-07T21:23:10.874Z,14.51
2022-10-07T21:26:53.588Z,14.28
2022-10-07T21:30:36.374Z,13.88
2022-10-07T21:34:19.342Z,13.62
2022-10-07T21:38:03.415Z,13.43
2022-10-07T21:41:47.716Z,13.28
2022-10-07T21:45:31.020Z,13.14
2022-10-07T21:49:14.474Z,13.02
2022-10-07T21:52:58.314Z,12.85
2022-10-07T21:56:43.629Z,12.72
2022-10-07T22:00:26.754Z,12.60
2022-10-07T22:04:16.439Z,12.51
2022-10-07T22:08:16.948Z,12.41
2022-10-07T22:12:01.191Z,12.32
2022-10-07T22:15:43.918Z,12.25
2022-10-07T22:19:26.621Z,12.17
2022-10-07T22:23:09.341Z,12.09
2022-10-07T22:26:52.114Z,12.04
2022-10-07T22:30:39.714Z,11.93
2022-10-07T22:34:50.040Z,11.87
2022-10-07T22:38:32.768Z,11.79
2022-10-07T22:42:15.430Z,11.79
2022-10-07T22:46:00.114Z,11.79
2022-10-07T22:49:42.846Z,11.79
2022-10-07T22:53:26.309Z,11.87
2022-10-07T22:57:08.984Z,11.81
2022-10-07T23:00:51.704Z,11.76
2022-10-07T23:04:35.783Z,11.69
2022-10-07T23:08:18.504Z,11.63
2022-10-07T23:12:01.193Z,11.61
2022-10-07T23:15:45.337Z,11.58
2022-10-07T23:19:28.062Z,11.61
2022-10-07T23:23:12.072Z,11.63
2022-10-07T23:26:54.877Z,11.63
2022-10-07T23:30:38.225Z,11.65
2022-10-07T23:34:20.895Z,11.68
2022-10-07T23:38:03.546Z,11.69
2022-10-07T23:41:47.601Z,11.70
2022-10-07T23:45:30.273Z,11.71
2022-10-07T23:49:13.327Z,11.71
2022-10-07T23:52:56.019Z,11.65
2022-10-07T23:56:38.701Z,11.64
